createdAt,value
2023-08-18T00:01:28.494Z,100827.42
2023-08-18T00:04:01.050Z,100821.08
2023-08-18T00:06:33.541Z,100818.77
2023-08-18T00:09:06.573Z,100812.87
2023-08-18T00:11:41.639Z,100809.55
2023-08-18T00:14:13.636Z,100813.02
2023-08-18T00:16:48.349Z,100815.81
2023-08-18T00:19:20.372Z,100832.16
2023-08-18T00:21:52.634Z,100864.23
2023-08-18T00:24:25.543Z,100906.08
2023-08-18T00:26:57.964Z,100933.55
2023-08-18T00:29:29.931Z,100939.00
2023-08-18T00:32:03.113Z,100943.39
2023-08-18T00:34:35.327Z,100949.02
2023-08-18T00:37:10.074Z,100977.84
2023-08-18T00:39:42.129Z,101002.60
2023-08-18T00:42:14.378Z,101003.01
2023-08-18T00:44:46.717Z,100972.91
2023-08-18T00:47:19.471Z,100960.59
2023-08-18T00:49:51.962Z,100962.61
2023-08-18T00:52:25.932Z,100958.88
2023-08-18T00:54:58.433Z,100960.05
2023-08-18T00:57:31.351Z,100958.21
2023-08-18T01:00:10.729Z,100942.91
2023-08-18T01:02:44.065Z,100912.05
2023-08-18T01:05:16.144Z,100895.48
2023-08-18T01:07:48.770Z,100886.52
2023-08-18T01:10:23.235Z,100878.05
2023-08-18T01:13:02.632Z,100871.20
2023-08-18T01:15:38.389Z,100869.54
2023-08-18T01:18:14.994Z,100871.06
2023-08-18T01:20:48.319Z,100890.98
2023-08-18T01:23:20.524Z,100916.38
2023-08-18T01:25:52.515Z,100933.08
2023-08-18T01:28:24.880Z,100960.48
2023-08-18T01:30:58.476Z,100966.86
2023-08-18T01:33:43.346Z,100993.03
2023-08-18T01:36:20.880Z,101028.42
2023-08-18T01:38:56.885Z,101031.91
2023-08-18T01:41:29.420Z,101012.32
2023-08-18T01:44:03.061Z,101001.38
2023-08-18T01:46:36.749Z,100989.70
2023-08-18T01:49:10.387Z,100981.84
2023-08-18T01:51:42.756Z,100979.44
2023-08-18T01:54:16.071Z,100974.84
2023-08-18T01:56:52.491Z,100963.58
2023-08-18T01:59:24.525Z,100946.37
2023-08-18T02:01:56.946Z,100944.40
2023-08-18T02:04:29.574Z,100946.38
2023-08-18T02:07:01.550Z,100909.23
2023-08-18T02:09:33.798Z,100897.98
2023-08-18T02:12:11.471Z,100907.47
2023-08-18T02:14:43.703Z,100913.44
2023-08-18T02:17:16.167Z,100914.27
2023-08-18T02:19:48.450Z,100913.00
2023-08-18T02:22:23.494Z,100898.93
2023-08-18T02:24:56.512Z,100896.44
2023-08-18T02:27:28.679Z,100890.08
2023-08-18T02:30:01.181Z,100895.21
2023-08-18T02:32:33.150Z,100901.67
2023-08-18T02:35:05.679Z,100897.20
2023-08-18T02:37:37.800Z,100903.08
2023-08-18T02:40:16.380Z,100924.54
2023-08-18T02:42:48.327Z,100875.52
2023-08-18T02:45:20.525Z,100918.95
2023-08-18T02:47:52.519Z,100958.71
2023-08-18T02:50:25.370Z,100981.02
2023-08-18T02:53:01.823Z,100949.60
2023-08-18T02:55:34.324Z,100940.54
2023-08-18T02:58:06.494Z,100949.77
2023-08-18T03:00:40.562Z,100950.98
2023-08-18T03:03:12.993Z,100931.80
2023-08-18T03:05:45.796Z,100908.50
2023-08-18T03:08:17.982Z,100892.11
2023-08-18T03:10:57.935Z,100889.50
2023-08-18T03:13:30.850Z,100883.46
2023-08-18T03:16:04.479Z,100887.03
2023-08-18T03:18:36.880Z,100888.11
2023-08-18T03:21:12.126Z,100877.34
2023-08-18T03:23:44.128Z,100871.91
2023-08-18T03:26:16.503Z,100863.92
2023-08-18T03:28:50.014Z,100854.98
2023-08-18T03:31:23.984Z,100849.92
2023-08-18T03:33:56.025Z,100846.30
2023-08-18T03:36:29.038Z,100847.20
2023-08-18T03:39:00.944Z,100846.98
2023-08-18T03:41:33.669Z,100840.14
2023-08-18T03:44:05.908Z,100844.73
2023-08-18T03:46:38.801Z,100852.86
2023-08-18T03:49:13.947Z,100845.65
2023-08-18T03:51:48.689Z,100842.02
2023-08-18T03:54:20.805Z,100834.79
2023-08-18T03:56:54.541Z,100838.39
2023-08-18T03:59:26.812Z,100839.90
2023-08-18T04:01:59.198Z,100837.20
2023-08-18T04:04:31.506Z,100838.27
2023-08-18T04:07:03.926Z,100841.53
2023-08-18T04:09:35.848Z,100843.86
2023-08-18T04:12:11.009Z,100847.61
2023-08-18T04:14:42.970Z,100844.02
2023-08-18T04:17:15.263Z,100837.07
2023-08-18T04:19:47.348Z,100830.61
2023-08-18T04:22:19.380Z,100827.73
2023-08-18T04:24:52.034Z,100823.70
2023-08-18T04:27:24.255Z,100820.18
2023-08-18T04:29:56.468Z,100821.22
2023-08-18T04:32:29.228Z,100820.06
2023-08-18T04:35:02.807Z,100816.36
2023-08-18T04:37:35.200Z,100811.30
2023-08-18T04:40:14.186Z,100801.59
2023-08-18T04:42:46.639Z,100798.80
2023-08-18T04:45:19.434Z,100792.86
2023-08-18T04:47:51.665Z,100791.61
2023-08-18T04:50:23.677Z,100784.09
2023-08-18T04:52:55.852Z,100784.63
2023-08-18T04:55:28.140Z,100784.52
2023-08-18T04:58:00.211Z,100786.67
2023-08-18T05:00:32.322Z,100790.41
2023-08-18T05:03:05.221Z,100796.83
2023-08-18T05:05:41.067Z,100796.71
2023-08-18T05:08:13.833Z,100801.98
2023-08-18T05:10:46.674Z,100799.45
2023-08-18T05:13:19.274Z,100798.85
2023-08-18T05:15:51.231Z,100796.88
2023-08-18T05:18:23.644Z,100796.66
2023-08-18T05:20:55.641Z,100801.77
2023-08-18T05:23:28.624Z,100801.01
2023-08-18T05:26:01.596Z,100804.33
2023-08-18T05:28:34.838Z,100805.73
2023-08-18T05:31:11.915Z,100804.22
2023-08-18T05:33:42.811Z,100801.23
2023-08-18T05:36:14.739Z,100800.54
2023-08-18T05:38:46.898Z,100800.14
2023-08-18T05:41:19.689Z,100802.27
2023-08-18T05:43:52.463Z,100800.45
2023-08-18T05:46:24.463Z,100801.95
2023-08-18T05:48:56.725Z,100799.41
2023-08-18T05:51:28.814Z,100798.09
2023-08-18T05:54:00.812Z,100797.97
2023-08-18T05:56:32.961Z,100800.83
2023-08-18T05:59:05.847Z,100800.05
2023-08-18T06:01:37.907Z,100810.05
2023-08-18T06:04:12.970Z,100811.23
2023-08-18T06:06:45.162Z,100806.20
2023-08-18T06:09:18.091Z,100800.28
2023-08-18T06:11:54.935Z,100800.23
2023-08-18T06:14:27.340Z,100798.66
2023-08-18T06:16:59.347Z,100797.14
2023-08-18T06:19:31.389Z,100797.14
2023-08-18T06:22:04.252Z,100795.82
2023-08-18T06:24:36.733Z,100796.89
2023-08-18T06:27:11.164Z,100796.20
2023-08-18T06:29:43.184Z,100793.58
2023-08-18T06:32:15.196Z,100790.60
2023-08-18T06:34:47.310Z,100787.52
2023-08-18T06:37:19.275Z,100793.67
2023-08-18T06:39:51.541Z,100792.66
2023-08-18T06:42:23.521Z,100793.23
2023-08-18T06:44:56.070Z,100793.45
2023-08-18T06:47:28.231Z,100796.69
2023-08-18T06:50:01.210Z,100797.23
2023-08-18T06:52:33.208Z,100800.69
2023-08-18T06:55:06.132Z,100797.89
2023-08-18T06:57:46.763Z,100796.05
2023-08-18T07:00:22.114Z,100790.48
2023-08-18T07:02:55.461Z,100792.35
2023-08-18T07:05:28.100Z,100789.11
2023-08-18T07:08:00.074Z,100793.19
2023-08-18T07:10:32.138Z,100792.21
2023-08-18T07:13:04.440Z,100791.07
2023-08-18T07:15:36.467Z,100789.75
2023-08-18T07:18:11.451Z,100796.00
2023-08-18T07:20:44.921Z,100798.69
2023-08-18T07:23:17.482Z,100798.80
2023-08-18T07:25:51.840Z,100800.24
2023-08-18T07:28:23.848Z,100800.15
2023-08-18T07:30:55.986Z,100800.88
2023-08-18T07:33:28.017Z,100801.94
2023-08-18T07:36:00.178Z,100802.64
2023-08-18T07:38:34.977Z,100804.16
2023-08-18T07:41:10.725Z,100805.78
2023-08-18T07:43:42.811Z,100803.11
2023-08-18T07:46:14.966Z,100798.00
2023-08-18T07:48:47.169Z,100805.09
2023-08-18T07:51:19.436Z,100802.94
2023-08-18T07:53:52.403Z,100804.58
2023-08-18T07:56:24.661Z,100807.11
2023-08-18T07:58:57.360Z,100811.83
2023-08-18T08:01:30.044Z,100812.14
2023-08-18T08:04:02.848Z,100812.77
2023-08-18T08:06:35.451Z,100813.73
2023-08-18T08:09:08.433Z,100817.08
2023-08-18T08:11:40.550Z,100816.38
2023-08-18T08:14:12.602Z,100817.02
2023-08-18T08:16:45.119Z,100820.38
2023-08-18T08:19:19.214Z,100820.29
2023-08-18T08:21:53.992Z,100820.14
2023-08-18T08:24:26.018Z,100817.88
2023-08-18T08:26:58.741Z,100817.59
2023-08-18T08:29:30.976Z,100819.70
2023-08-18T08:32:02.901Z,100819.22
2023-08-18T08:34:34.869Z,100817.16
2023-08-18T08:37:07.038Z,100815.91
2023-08-18T08:39:40.531Z,100817.73
2023-08-18T08:42:12.835Z,100827.33
2023-08-18T08:44:45.075Z,100821.45
2023-08-18T08:47:19.142Z,100819.20
2023-08-18T08:50:00.047Z,100819.91
2023-08-18T08:52:38.867Z,100819.47
2023-08-18T08:55:22.013Z,100821.58
2023-08-18T08:57:54.061Z,100822.40
2023-08-18T09:00:28.110Z,100817.92
2023-08-18T09:03:03.850Z,100822.35
2023-08-18T09:05:36.620Z,100823.52
2023-08-18T09:08:11.322Z,100820.28
2023-08-18T09:10:44.584Z,100820.42
2023-08-18T09:13:17.212Z,100817.13
2023-08-18T09:15:49.606Z,100819.95
2023-08-18T09:18:22.070Z,100817.11
2023-08-18T09:20:58.466Z,100810.16
2023-08-18T09:23:30.753Z,100811.18
2023-08-18T09:26:03.502Z,100803.77
2023-08-18T09:28:35.587Z,100806.98
2023-08-18T09:31:08.465Z,100806.00
2023-08-18T09:33:41.140Z,100802.52
2023-08-18T09:36:16.655Z,100797.40
2023-08-18T09:38:49.412Z,100796.36
2023-08-18T09:41:22.775Z,100796.90
2023-08-18T09:43:54.827Z,100796.75
2023-08-18T09:46:31.052Z,100792.45
2023-08-18T09:49:05.153Z,100789.02
2023-08-18T09:51:38.364Z,100788.17
2023-08-18T09:54:14.652Z,100787.38
2023-08-18T09:56:52.754Z,100785.59
2023-08-18T09:59:30.369Z,100784.81
2023-08-18T10:02:04.987Z,100782.37
2023-08-18T10:04:41.698Z,100780.98
2023-08-18T10:07:15.211Z,100781.02
2023-08-18T10:09:48.339Z,100773.80
2023-08-18T10:12:20.571Z,100773.56
2023-08-18T10:14:54.241Z,100770.00
2023-08-18T10:17:27.035Z,100772.13
2023-08-18T10:20:01.612Z,100772.55
2023-08-18T10:22:36.822Z,100772.39
2023-08-18T10:25:27.162Z,100771.08
2023-08-18T10:28:01.173Z,100771.55
2023-08-18T10:30:33.692Z,100770.64
2023-08-18T10:33:14.124Z,100772.09
2023-08-18T10:35:49.661Z,100772.90
2023-08-18T10:38:22.455Z,100772.25
2023-08-18T10:40:55.604Z,100771.89
2023-08-18T10:43:31.093Z,100775.30
2023-08-18T10:46:04.355Z,100767.54
2023-08-18T10:48:36.701Z,100768.14
2023-08-18T10:51:10.178Z,100765.87
2023-08-18T10:53:43.822Z,100766.53
2023-08-18T10:56:16.145Z,100761.95
2023-08-18T10:58:48.574Z,100759.86
2023-08-18T11:01:23.969Z,100759.86
2023-08-18T11:03:56.421Z,100762.23
2023-08-18T11:06:28.942Z,100758.91
2023-08-18T11:09:01.367Z,100757.48
2023-08-18T11:11:33.800Z,100756.33
2023-08-18T11:14:07.262Z,100755.92
2023-08-18T11:16:40.942Z,100757.44
2023-08-18T11:19:14.055Z,100757.32
2023-08-18T11:21:49.168Z,100755.82
2023-08-18T11:24:21.596Z,100754.42
2023-08-18T11:26:54.553Z,100757.38
2023-08-18T11:29:30.214Z,100757.51
2023-08-18T11:32:02.368Z,100755.92
2023-08-18T11:34:35.147Z,100752.14
2023-08-18T11:37:11.835Z,100750.20
2023-08-18T11:39:44.187Z,100746.43
2023-08-18T11:42:16.372Z,100744.76
2023-08-18T11:44:50.826Z,100740.46
2023-08-18T11:47:24.054Z,100739.41
2023-08-18T11:49:57.801Z,100732.61
2023-08-18T11:52:40.358Z,100731.89
2023-08-18T11:55:16.492Z,100730.73
2023-08-18T11:57:48.617Z,100726.83
2023-08-18T12:00:22.056Z,100725.64
2023-08-18T12:02:54.064Z,100728.71
2023-08-18T12:05:28.309Z,100722.42
2023-08-18T12:08:02.410Z,100719.46
2023-08-18T12:10:34.678Z,100718.33
2023-08-18T12:13:06.959Z,100714.55
2023-08-18T12:15:41.473Z,100709.56
2023-08-18T12:18:13.977Z,100708.88
2023-08-18T12:20:46.175Z,100708.80
2023-08-18T12:23:18.154Z,100706.41
2023-08-18T12:25:50.308Z,100708.55
2023-08-18T12:28:22.265Z,100708.49
2023-08-18T12:30:54.197Z,100707.35
2023-08-18T12:33:26.648Z,100701.80
2023-08-18T12:35:58.612Z,100696.98
2023-08-18T12:38:30.542Z,100700.34
2023-08-18T12:41:04.137Z,100700.19
2023-08-18T12:43:38.050Z,100701.06
2023-08-18T12:46:12.484Z,100699.60
2023-08-18T12:48:44.547Z,100701.92
2023-08-18T12:51:19.371Z,100699.54
2023-08-18T12:53:52.540Z,100698.48
2023-08-18T12:56:24.602Z,100703.95
2023-08-18T12:58:56.745Z,100702.77
2023-08-18T13:01:28.973Z,100704.77
2023-08-18T13:04:00.990Z,100708.14
2023-08-18T13:06:33.390Z,100708.64
2023-08-18T13:09:05.611Z,100703.54
2023-08-18T13:11:37.716Z,100704.25
2023-08-18T13:14:10.910Z,100706.27
2023-08-18T13:16:46.363Z,100705.14
2023-08-18T13:19:18.973Z,100705.96
2023-08-18T13:24:29.889Z,100695.12
2023-08-18T13:27:02.190Z,100697.40
2023-08-18T13:29:34.566Z,100697.98
2023-08-18T13:32:07.040Z,100694.46
2023-08-18T13:34:40.316Z,100700.06
2023-08-18T13:37:12.583Z,100703.52
2023-08-18T13:39:45.043Z,100707.73
2023-08-18T13:42:18.621Z,100707.89
2023-08-18T13:44:50.986Z,100709.59
2023-08-18T13:47:23.221Z,100712.59
2023-08-18T13:49:55.264Z,100711.98
2023-08-18T13:52:27.296Z,100715.76
2023-08-18T13:54:59.299Z,100716.08
2023-08-18T13:57:31.673Z,100720.40
2023-08-18T14:00:03.730Z,100722.48
2023-08-18T14:02:43.920Z,100719.05
2023-08-18T14:05:17.704Z,100717.47
2023-08-18T14:07:50.091Z,100726.08
2023-08-18T14:10:22.297Z,100738.70
2023-08-18T14:12:54.944Z,100754.58
2023-08-18T14:15:27.184Z,100758.15
2023-08-18T14:17:59.508Z,100757.72
2023-08-18T14:20:31.661Z,100763.30
2023-08-18T14:23:03.912Z,100780.52
2023-08-18T14:25:36.269Z,100780.90
2023-08-18T14:28:09.791Z,100788.69
2023-08-18T14:30:41.691Z,100790.44
2023-08-18T14:33:14.502Z,100795.79
2023-08-18T14:35:46.710Z,100795.48
2023-08-18T14:38:18.856Z,100796.73
2023-08-18T14:40:51.025Z,100794.87
2023-08-18T14:43:23.363Z,100794.80
2023-08-18T14:45:55.359Z,100794.55
2023-08-18T14:48:30.450Z,100795.31
2023-08-18T14:51:05.763Z,100797.80
2023-08-18T14:53:38.413Z,100801.05
2023-08-18T14:56:12.704Z,100801.03
2023-08-18T14:58:45.338Z,100803.67
2023-08-18T15:01:17.386Z,100807.58
2023-08-18T15:03:49.909Z,100814.64
2023-08-18T15:06:22.329Z,100820.23
2023-08-18T15:08:54.512Z,100815.27
2023-08-18T15:11:26.571Z,100811.70
2023-08-18T15:13:59.072Z,100810.34
2023-08-18T15:16:31.434Z,100808.91
2023-08-18T15:19:04.131Z,100808.02
2023-08-18T15:21:36.056Z,100807.95
2023-08-18T15:24:12.141Z,100808.29
2023-08-18T15:26:44.521Z,100806.58
2023-08-18T15:29:19.216Z,100802.04
2023-08-18T15:31:54.681Z,100797.73
2023-08-18T15:34:26.758Z,100794.13
2023-08-18T15:37:00.574Z,100795.35
2023-08-18T15:39:32.923Z,100793.40
2023-08-18T15:42:05.549Z,100793.48
2023-08-18T15:44:37.806Z,100796.41
2023-08-18T15:47:10.655Z,100795.01
2023-08-18T15:49:43.004Z,100789.95
2023-08-18T15:52:14.966Z,100783.44
2023-08-18T15:54:47.228Z,100782.91
2023-08-18T15:57:19.331Z,100785.58
2023-08-18T15:59:51.454Z,100782.33
2023-08-18T16:02:23.426Z,100776.95
2023-08-18T16:04:56.129Z,100775.81
2023-08-18T16:07:28.586Z,100782.41
2023-08-18T16:10:01.194Z,100779.25
2023-08-18T16:12:33.289Z,100778.92
2023-08-18T16:17:41.210Z,100776.83
2023-08-18T16:20:15.718Z,100771.86
2023-08-18T16:22:47.633Z,100766.66
2023-08-18T16:25:20.468Z,100759.83
2023-08-18T16:27:53.660Z,100757.95
2023-08-18T16:30:26.065Z,100762.19
2023-08-18T16:32:58.346Z,100754.53
2023-08-18T16:35:31.988Z,100755.95
2023-08-18T16:38:06.329Z,100755.67
2023-08-18T16:40:39.018Z,100753.21
2023-08-18T16:43:13.325Z,100750.30
2023-08-18T16:45:45.701Z,100747.21
2023-08-18T16:48:17.717Z,100742.92
2023-08-18T16:50:49.913Z,100746.48
2023-08-18T16:53:22.019Z,100746.16
2023-08-18T16:55:54.784Z,100751.89
2023-08-18T16:58:26.864Z,100750.11
2023-08-18T17:00:59.194Z,100752.75
2023-08-18T17:03:31.316Z,100752.23
2023-08-18T17:06:03.359Z,100751.27
2023-08-18T17:08:35.308Z,100747.52
2023-08-18T17:11:08.665Z,100753.83
2023-08-18T17:13:40.650Z,100759.67
2023-08-18T17:16:12.916Z,100773.23
2023-08-18T17:18:45.116Z,100810.58
2023-08-18T17:21:22.403Z,100844.76
2023-08-18T17:23:54.758Z,100842.90
2023-08-18T17:26:26.918Z,100831.77
2023-08-18T17:28:58.882Z,100830.65
2023-08-18T17:31:31.050Z,100830.35
2023-08-18T17:34:03.320Z,100819.14
2023-08-18T17:36:35.727Z,100788.80
2023-08-18T17:39:08.720Z,100792.08
2023-08-18T17:41:40.804Z,100811.04
2023-08-18T17:44:12.725Z,100812.98
2023-08-18T17:46:44.926Z,100808.52
2023-08-18T17:49:18.959Z,100809.30
2023-08-18T17:51:52.309Z,100800.10
2023-08-18T17:54:24.659Z,100788.59
2023-08-18T17:56:56.671Z,100785.60
2023-08-18T17:59:28.627Z,100784.63
2023-08-18T18:02:00.721Z,100789.62
2023-08-18T18:04:32.745Z,100791.96
2023-08-18T18:07:06.539Z,100793.56
2023-08-18T18:09:40.468Z,100791.60
2023-08-18T18:12:16.408Z,100789.23
2023-08-18T18:14:49.694Z,100789.60
2023-08-18T18:17:21.967Z,100789.48
2023-08-18T18:19:54.046Z,100788.86
2023-08-18T18:22:26.355Z,100781.67
2023-08-18T18:24:58.454Z,100776.77
2023-08-18T18:27:30.679Z,100772.49
2023-08-18T18:30:03.449Z,100772.90
2023-08-18T18:32:35.591Z,100765.85
2023-08-18T18:35:10.490Z,100766.19
2023-08-18T18:37:42.702Z,100762.27
2023-08-18T18:40:20.584Z,100765.92
2023-08-18T18:42:53.125Z,100768.26
2023-08-18T18:45:25.201Z,100762.92
2023-08-18T18:47:57.276Z,100768.41
2023-08-18T18:50:29.775Z,100766.61
2023-08-18T18:53:02.073Z,100768.20
2023-08-18T18:55:34.333Z,100769.88
2023-08-18T18:58:07.665Z,100767.77
2023-08-18T19:00:41.210Z,100769.89
2023-08-18T19:03:13.588Z,100768.92
2023-08-18T19:05:45.648Z,100772.11
2023-08-18T19:08:18.326Z,100773.15
2023-08-18T19:10:50.430Z,100779.67
2023-08-18T19:13:22.599Z,100774.33
2023-08-18T19:15:54.787Z,100773.15
2023-08-18T19:18:28.326Z,100771.96
2023-08-18T19:21:00.597Z,100774.39
2023-08-18T19:23:37.965Z,100780.66
2023-08-18T19:26:10.959Z,100786.31
2023-08-18T19:28:43.330Z,100782.67
2023-08-18T19:31:15.369Z,100785.56
2023-08-18T19:33:47.452Z,100784.48
2023-08-18T19:36:20.739Z,100783.51
2023-08-18T19:38:53.851Z,100782.91
2023-08-18T19:41:26.015Z,100785.55
2023-08-18T19:43:58.351Z,100783.27
2023-08-18T19:46:30.350Z,100778.34
2023-08-18T19:49:02.694Z,100777.23
2023-08-18T19:51:34.758Z,100783.08
2023-08-18T19:54:10.152Z,100783.78
2023-08-18T19:56:42.812Z,100791.65
2023-08-18T19:59:14.964Z,100794.36
2023-08-18T20:01:48.309Z,100797.08
2023-08-18T20:04:20.654Z,100797.15
2023-08-18T20:06:52.715Z,100793.11
2023-08-18T20:09:25.525Z,100796.59
2023-08-18T20:11:57.496Z,100790.13
2023-08-18T20:14:30.930Z,100795.33
2023-08-18T20:17:04.370Z,100799.52
2023-08-18T20:19:36.600Z,100796.16
2023-08-18T20:22:10.048Z,100795.75
2023-08-18T20:24:42.323Z,100799.96
2023-08-18T20:27:14.258Z,100800.91
2023-08-18T20:29:46.555Z,100803.23
2023-08-18T20:32:18.522Z,100805.25
2023-08-18T20:34:50.634Z,100803.07
2023-08-18T20:37:22.552Z,100802.05
2023-08-18T20:39:54.955Z,100799.48
2023-08-18T20:42:27.743Z,100798.95
2023-08-18T20:45:00.001Z,100799.88
2023-08-18T20:47:32.252Z,100796.09
2023-08-18T20:50:05.496Z,100801.04
2023-08-18T20:52:37.617Z,100796.55
2023-08-18T20:55:18.137Z,100799.30
2023-08-18T20:57:50.048Z,100794.64
2023-08-18T21:00:24.775Z,100792.66
2023-08-18T21:02:59.177Z,100797.35
2023-08-18T21:05:31.858Z,100794.94
2023-08-18T21:08:03.805Z,100796.17
2023-08-18T21:10:35.874Z,100798.63
2023-08-18T21:13:10.606Z,100804.66
2023-08-18T21:15:42.872Z,100805.27
2023-08-18T21:18:15.330Z,100806.20
2023-08-18T21:20:47.860Z,100806.34
2023-08-18T21:23:19.884Z,100812.05
2023-08-18T21:25:51.906Z,100810.52
2023-08-18T21:28:23.952Z,100810.86
2023-08-18T21:31:00.970Z,100813.06
2023-08-18T21:33:33.411Z,100812.45
2023-08-18T21:36:05.817Z,100812.79
2023-08-18T21:38:37.790Z,100813.79
2023-08-18T21:41:14.931Z,100820.65
2023-08-18T21:43:46.913Z,100818.07
2023-08-18T21:46:18.934Z,100817.60
2023-08-18T21:48:53.725Z,100815.43
2023-08-18T21:51:26.307Z,100815.00
2023-08-18T21:53:58.401Z,100813.76
2023-08-18T21:56:32.695Z,100818.70
2023-08-18T21:59:04.833Z,100819.27
2023-08-18T22:01:37.109Z,100809.50
2023-08-18T22:04:10.156Z,100810.45
2023-08-18T22:06:42.409Z,100806.43
2023-08-18T22:09:14.359Z,100807.33
2023-08-18T22:11:51.019Z,100803.80
2023-08-18T22:14:24.924Z,100800.38
2023-08-18T22:16:57.048Z,100798.29
2023-08-18T22:19:29.221Z,100797.94
2023-08-18T22:22:01.420Z,100793.02
2023-08-18T22:24:33.373Z,100787.26
2023-08-18T22:27:05.744Z,100780.01
2023-08-18T22:29:37.853Z,100776.75
2023-08-18T22:32:11.078Z,100777.77
2023-08-18T22:34:43.055Z,100776.24
2023-08-18T22:37:15.425Z,100774.02
2023-08-18T22:39:47.384Z,100776.26
2023-08-18T22:42:19.347Z,100778.45
2023-08-18T22:44:51.296Z,100778.09
2023-08-18T22:47:26.673Z,100781.30
2023-08-18T22:49:58.607Z,100779.69
2023-08-18T22:52:30.702Z,100772.40
2023-08-18T22:55:02.707Z,100775.89
2023-08-18T23:44:58.409Z,100770.79
2023-08-18T23:47:30.888Z,100767.88
2023-08-18T23:50:05.409Z,100766.90
2023-08-18T23:52:37.665Z,100763.07
2023-08-18T23:55:18.158Z,100760.30
2023-08-18T23:57:50.210Z,100762.33
